Time;durP1;ratioP1;P1;durP2;ratioP2;P2;SDS_P1;SDS_P2;PMS_P1;PMS_P2;Temp;Humidity;BMP_temperature;BMP_pressure;BME280_temperature;BME280_humidity;BME280_pressure;Samples;Min_cycle;Max_cycle;Signal;HPM_P1;HPM_P2
2022/09/28 00:00:47;;;;;;;5.60;5.00;;;;;21.60;98449.00;;;;2050512;28;20230;-68
2022/09/28 00:01:47;;;;;;;5.73;5.03;;;;;21.60;98458.00;;;;2051414;28;20609;-68
2022/09/28 00:02:48;;;;;;;4.87;4.40;;;;;21.60;98457.00;;;;2051122;28;20626;-68
2022/09/28 00:03:50;;;;;;;5.10;4.50;;;;;21.60;98459.00;;;;2051485;28;20714;-68
2022/09/28 00:04:50;;;;;;;5.90;4.13;;;;;21.50;98454.00;;;;2052196;28;20467;-68
2022/09/28 00:05:50;;;;;;;5.80;4.53;;;;;21.50;98451.00;;;;2052186;28;20216;-69
2022/09/28 00:06:51;;;;;;;4.87;4.37;;;;;21.60;98446.00;;;;2052362;28;20215;-68
2022/09/28 00:07:55;;;;;;;4.30;3.50;;;;;21.50;98457.00;;;;2051669;28;20679;-69
2022/09/28 00:08:56;;;;;;;4.40;4.00;;;;;21.50;98459.00;;;;2051266;28;20307;-69
2022/09/28 00:09:56;;;;;;;4.30;3.90;;;;;21.50;98455.00;;;;2051557;28;20226;-68
2022/09/28 00:10:56;;;;;;;5.43;3.90;;;;;21.50;98455.00;;;;2051472;28;20467;-68
2022/09/28 00:11:57;;;;;;;5.20;4.03;;;;;21.50;98456.00;;;;2051519;28;20221;-68
2022/09/28 00:12:59;;;;;;;4.63;3.77;;;;;21.50;98469.00;;;;2052147;28;20782;-68
2022/09/28 00:14:02;;;;;;;4.75;4.25;;;;;21.50;98452.00;;;;2050563;28;20216;-69
2022/09/28 00:15:03;;;;;;;4.72;4.03;;;;;21.50;98456.00;;;;2052181;28;20215;-68
2022/09/28 00:16:13;;;;;;;4.83;4.23;;;;;21.50;98458.00;;;;2051457;28;20272;-69
2022/09/28 00:17:15;;;;;;;4.72;3.88;;;;;21.50;98446.00;;;;2051497;28;20765;-69
2022/09/28 00:18:16;;;;;;;4.57;3.55;;;;;21.50;98454.00;;;;2052046;28;20227;-68
2022/09/28 00:19:16;;;;;;;4.07;3.70;;;;;21.50;98454.00;;;;2051738;28;20227;-69
2022/09/28 00:20:18;;;;;;;4.10;3.70;;;;;21.50;98458.00;;;;2052177;28;20208;-69
2022/09/28 00:21:23;;;;;;;5.18;3.80;;;;;21.50;98452.00;;;;2052128;28;20266;-68
2022/09/28 00:22:23;;;;;;;3.78;3.38;;;;;21.50;98446.00;;;;2051165;28;20219;-68
2022/09/28 00:23:23;;;;;;;4.67;3.70;;;;;21.50;98436.00;;;;2051092;28;20221;-66
2022/09/28 00:24:24;;;;;;;4.47;3.70;;;;;21.40;98450.00;;;;2058467;28;20207;-67
2022/09/28 00:25:24;;;;;;;4.33;3.50;;;;;21.50;98445.00;;;;2058622;28;20692;-66
2022/09/28 00:26:28;;;;;;;4.80;3.50;;;;;21.50;98444.00;;;;2051407;28;20238;-67
2022/09/28 00:27:28;;;;;;;4.53;3.42;;;;;21.50;98425.00;;;;2051345;28;20577;-68
2022/09/28 00:28:30;;;;;;;4.60;3.27;;;;;21.50;98444.00;;;;2051236;28;20255;-69
2022/09/28 00:29:34;;;;;;;3.22;2.80;;;;;21.50;98438.00;;;;2058345;28;20224;-68
2022/09/28 00:30:35;;;;;;;3.17;2.80;;;;;21.40;98452.00;;;;2058674;28;20270;-68
2022/09/28 00:31:35;;;;;;;3.50;3.13;;;;;21.40;98446.00;;;;2051923;28;21004;-68
2022/09/28 00:32:36;;;;;;;4.50;3.27;;;;;21.40;98423.00;;;;2051978;28;20231;-68
2022/09/28 00:33:36;;;;;;;4.10;3.13;;;;;21.50;98449.00;;;;2051164;28;20654;-69
2022/09/28 00:34:40;;;;;;;3.20;2.70;;;;;21.40;98443.00;;;;2051158;28;20256;-68
2022/09/28 00:35:40;;;;;;;3.65;3.25;;;;;21.40;98443.00;;;;2054815;28;20318;-69
2022/09/28 00:36:42;;;;;;;3.10;2.80;;;;;21.40;98444.00;;;;2055103;28;20211;-68
2022/09/28 00:37:43;;;;;;;4.05;3.13;;;;;21.40;98430.00;;;;2052068;28;20307;-68
2022/09/28 00:38:43;;;;;;;3.97;3.53;;;;;21.40;98438.00;;;;2052076;28;20582;-69
2022/09/28 00:39:44;;;;;;;3.43;3.13;;;;;21.40;98439.00;;;;2052198;28;20808;-68
2022/09/28 00:40:44;;;;;;;4.37;2.90;;;;;21.40;98434.00;;;;2051769;28;21127;-69
2022/09/28 00:41:44;;;;;;;3.40;2.63;;;;;21.40;98437.00;;;;2049793;28;20310;-69
2022/09/28 00:42:45;;;;;;;5.30;3.50;;;;;21.40;98444.00;;;;2051028;28;20231;-68
2022/09/28 00:43:45;;;;;;;4.27;3.00;;;;;21.40;98369.00;;;;2051085;28;20212;-69
2022/09/28 00:44:55;;;;;;;3.20;2.80;;;;;21.40;98430.00;;;;2051154;28;20214;-69
2022/09/28 00:46:03;;;;;;;3.05;2.67;;;;;21.40;98437.00;;;;2053406;28;20227;-68
2022/09/28 00:47:15;;;;;;;3.17;2.88;;;;;21.40;98432.00;;;;2050388;28;20251;-69
2022/09/28 00:48:16;;;;;;;3.17;2.63;;;;;21.40;98440.00;;;;2051407;28;20750;-68
2022/09/28 00:49:16;;;;;;;3.27;2.80;;;;;21.40;98423.00;;;;2058371;28;20226;-68
2022/09/28 00:50:30;;;;;;;4.23;3.00;;;;;21.30;98435.00;;;;2058248;28;20246;-68
2022/09/28 00:51:31;;;;;;;2.92;2.60;;;;;21.40;98432.00;;;;2050401;28;20219;-68
2022/09/28 00:52:42;;;;;;;3.27;2.97;;;;;21.30;98430.00;;;;2053439;28;20692;-68
2022/09/28 00:53:42;;;;;;;2.83;2.63;;;;;21.30;98426.00;;;;2050730;28;20228;-69
2022/09/28 00:54:42;;;;;;;3.07;2.77;;;;;21.30;98423.00;;;;2051317;28;20208;-69
2022/09/28 00:55:57;;;;;;;3.30;2.53;;;;;21.30;98429.00;;;;2053069;28;20267;-68
2022/09/28 00:56:57;;;;;;;3.67;2.80;;;;;21.30;98397.00;;;;2030760;29;20250;-68
2022/09/28 00:57:58;;;;;;;3.40;2.70;;;;;21.30;98432.00;;;;2023223;29;20222;-69
2022/09/28 00:58:59;;;;;;;3.40;2.80;;;;;21.30;98427.00;;;;2045976;28;20224;-68
2022/09/28 00:59:59;;;;;;;3.43;2.63;;;;;21.30;98430.00;;;;2038688;29;20213;-67
2022/09/28 01:00:59;;;;;;;2.90;2.60;;;;;21.30;98423.00;;;;2050215;28;20314;-68
2022/09/28 01:02:00;;;;;;;3.50;2.60;;;;;21.30;98410.00;;;;2050862;28;20212;-68
2022/09/28 01:03:01;;;;;;;3.10;2.80;;;;;21.30;98427.00;;;;2051209;28;20628;-68
2022/09/28 01:04:01;;;;;;;3.67;2.70;;;;;21.30;98394.00;;;;2058940;28;20465;-68
2022/09/28 01:05:02;;;;;;;2.90;2.40;;;;;21.30;98422.00;;;;2059033;28;20701;-68
2022/09/28 01:06:03;;;;;;;3.13;2.53;;;;;21.30;98419.00;;;;2051080;28;20752;-68
2022/09/28 01:07:03;;;;;;;3.27;2.60;;;;;21.30;98430.00;;;;2058270;28;20207;-69
2022/09/28 01:08:03;;;;;;;3.90;2.67;;;;;21.30;98432.00;;;;2058030;28;20407;-68
2022/09/28 01:09:05;;;;;;;3.57;3.00;;;;;21.30;98427.00;;;;2053669;28;20219;-69
2022/09/28 01:10:06;;;;;;;3.60;2.60;;;;;21.30;98394.00;;;;2042241;29;20227;-68
2022/09/28 01:11:06;;;;;;;2.30;2.10;;;;;21.30;98427.00;;;;2037700;29;20653;-69
2022/09/28 01:12:07;;;;;;;2.70;2.50;;;;;21.30;98425.00;;;;2049209;28;20272;-68
2022/09/28 01:13:07;;;;;;;3.77;2.40;;;;;21.30;98433.00;;;;2054148;28;20275;-68
2022/09/28 01:14:09;;;;;;;3.90;2.50;;;;;21.30;98426.00;;;;2057658;28;20228;-69
2022/09/28 01:15:09;;;;;;;2.80;2.42;;;;;21.30;98423.00;;;;2057588;28;20227;-69
2022/09/28 01:16:44;;;;;;;5.97;2.30;;;;;21.30;98416.00;;;;2057847;28;20266;-68
2022/09/28 01:18:06;;;;;;;3.10;2.30;;;;;21.30;98418.00;;;;2045176;29;20224;-68
2022/09/28 01:19:27;;;;;;;2.95;2.63;;;;;21.30;98407.00;;;;2044069;28;20325;-68
2022/09/28 01:20:38;;;;;;;3.35;2.50;;;;;21.30;98421.00;;;;2050462;28;20215;-68
2022/09/28 01:22:13;;;;;;;2.65;2.45;;;;;21.30;98417.00;;;;2053187;28;20208;-68
2022/09/28 01:23:27;;;;;;;4.85;2.58;;;;;21.30;98425.00;;;;2036611;28;20221;-68
2022/09/28 01:24:42;;;;;;;2.75;2.50;;;;;21.30;98419.00;;;;2058210;28;20300;-68
2022/09/28 01:26:13;;;;;;;3.80;2.30;;;;;21.30;98413.00;;;;2045177;29;20219;-68
2022/09/28 01:27:21;;;;;;;2.70;2.28;;;;;21.30;98399.00;;;;2037699;28;20220;-68
2022/09/28 01:28:26;;;;;;;2.42;2.22;;;;;21.20;98413.00;;;;2045538;28;20212;-68
2022/09/28 01:29:34;;;;;;;2.50;2.08;;;;;21.30;98416.00;;;;2041843;29;20219;-68
2022/09/28 01:31:03;;;;;;;3.00;2.70;;;;;21.30;98369.00;;;;2042525;28;20252;-68
2022/09/28 01:32:19;;;;;;;2.83;2.47;;;;;21.20;98410.00;;;;2057402;28;20235;-68
2022/09/28 01:33:21;;;;;;;3.47;2.25;;;;;21.20;98406.00;;;;2056774;28;20284;-68
2022/09/28 01:34:30;;;;;;;2.60;2.00;;;;;21.20;98410.00;;;;2042567;29;20220;-68
2022/09/28 01:35:35;;;;;;;2.83;2.53;;;;;21.20;98412.00;;;;2050648;28;20282;-68
2022/09/28 01:36:40;;;;;;;3.15;2.85;;;;;21.20;98404.00;;;;2057643;28;20216;-69
2022/09/28 01:37:56;;;;;;;2.90;2.10;;;;;21.20;98412.00;;;;2058975;28;20258;-68
2022/09/28 01:39:08;;;;;;;3.42;2.30;;;;;21.20;98411.00;;;;2050110;28;20219;-69
2022/09/28 01:40:08;;;;;;;2.40;2.20;;;;;21.20;98408.00;;;;2051252;28;20790;-68
2022/09/28 01:41:09;;;;;;;2.30;2.10;;;;;21.20;98409.00;;;;2058833;28;20299;-69
2022/09/28 01:42:12;;;;;;;2.20;1.80;;;;;21.20;98397.00;;;;2058630;28;20310;-68
2022/09/28 01:43:26;;;;;;;2.80;2.00;;;;;21.20;98421.00;;;;2058893;28;20314;-69
2022/09/28 01:44:27;;;;;;;2.35;2.15;;;;;21.20;98398.00;;;;2052025;28;20214;-69
2022/09/28 01:45:30;;;;;;;2.30;2.10;;;;;21.20;98409.00;;;;2042198;29;20288;-68
2022/09/28 01:46:33;;;;;;;2.53;2.10;;;;;21.20;98393.00;;;;2042876;28;20256;-69
2022/09/28 01:47:35;;;;;;;2.65;2.10;;;;;21.20;98407.00;;;;2050868;28;20659;-69
2022/09/28 01:48:38;;;;;;;1.95;1.75;;;;;21.20;98388.00;;;;2046337;28;20227;-66
2022/09/28 01:49:41;;;;;;;2.00;1.90;;;;;21.10;98416.00;;;;2043954;28;20286;-69
2022/09/28 01:50:41;;;;;;;1.95;1.85;;;;;21.20;98410.00;;;;2057846;28;20700;-68
2022/09/28 01:51:47;;;;;;;1.77;1.67;;;;;21.10;98417.00;;;;2053233;28;20212;-68
2022/09/28 01:53:08;;;;;;;3.17;2.42;;;;;21.20;98415.00;;;;2048073;28;20231;-69
2022/09/28 01:54:13;;;;;;;2.55;2.10;;;;;21.20;98399.00;;;;2051702;28;20260;-68
2022/09/28 01:55:33;;;;;;;1.95;1.73;;;;;21.20;98399.00;;;;2042206;29;20772;-68
2022/09/28 01:56:37;;;;;;;2.05;1.85;;;;;21.20;98409.00;;;;2051790;28;20217;-69
2022/09/28 01:58:13;;;;;;;2.42;2.10;;;;;21.10;98410.00;;;;2057292;28;20302;-67
2022/09/28 01:59:20;;;;;;;2.15;1.95;;;;;20.60;98408.00;;;;2040595;29;20212;-68
2022/09/28 02:00:21;;;;;;;3.97;2.30;;;;;21.10;98403.00;;;;2048301;28;20215;-69
2022/09/28 02:01:25;;;;;;;2.40;2.10;;;;;21.10;98417.00;;;;2059266;28;20210;-69
2022/09/28 02:02:29;;;;;;;3.17;1.98;;;;;21.10;98409.00;;;;2058693;28;20225;-68
2022/09/28 02:03:33;;;;;;;2.20;1.92;;;;;21.10;98408.00;;;;2059052;28;20742;-68
2022/09/28 02:04:41;;;;;;;2.17;1.77;;;;;21.10;98398.00;;;;2059371;28;20214;-69
2022/09/28 02:05:48;;;;;;;2.30;2.10;;;;;21.10;98408.00;;;;2055923;28;20238;-68
2022/09/28 02:06:52;;;;;;;2.30;2.10;;;;;21.10;98434.00;;;;2059792;28;20219;-69
2022/09/28 02:08:02;;;;;;;2.25;1.88;;;;;21.10;98412.00;;;;2059129;28;20222;-69
2022/09/28 02:09:08;;;;;;;2.97;2.35;;;;;21.10;98406.00;;;;2037904;29;20217;-68
2022/09/28 02:10:14;;;;;;;2.35;2.15;;;;;21.10;98380.00;;;;2040582;28;20224;-67
2022/09/28 02:11:16;;;;;;;2.33;1.88;;;;;21.10;98410.00;;;;2060059;28;20646;-68
2022/09/28 02:12:42;;;;;;;2.25;2.05;;;;;21.10;98400.00;;;;2059294;28;20225;-69
2022/09/28 02:13:54;;;;;;;2.40;2.13;;;;;21.10;98411.00;;;;2058806;28;20227;-68
2022/09/28 02:14:54;;;;;;;2.58;1.80;;;;;21.10;98411.00;;;;2059346;28;20753;-69
2022/09/28 02:16:25;;;;;;;1.93;1.80;;;;;21.10;98406.00;;;;2059632;28;20305;-68
2022/09/28 02:17:25;;;;;;;2.65;2.40;;;;;21.10;98426.00;;;;2052901;28;20230;-68
2022/09/28 02:18:26;;;;;;;1.97;1.77;;;;;21.10;98417.00;;;;2055520;28;20212;-68
2022/09/28 02:19:27;;;;;;;3.87;2.13;;;;;20.50;98415.00;;;;2053033;28;20234;-68
2022/09/28 02:20:28;;;;;;;3.00;1.83;;;;;21.10;98412.00;;;;2053935;28;20280;-68
2022/09/28 02:21:51;;;;;;;3.22;2.05;;;;;21.10;98413.00;;;;2052380;28;20215;-68
2022/09/28 02:22:54;;;;;;;2.72;2.00;;;;;21.10;98414.00;;;;2042662;28;20357;-68
2022/09/28 02:23:56;;;;;;;2.88;2.30;;;;;21.10;98394.00;;;;2059477;28;20222;-68
2022/09/28 02:24:58;;;;;;;2.35;1.65;;;;;21.10;98383.00;;;;2059070;28;20317;-68
2022/09/28 02:26:04;;;;;;;2.58;2.08;;;;;21.10;98415.00;;;;2047508;28;20307;-68
2022/09/28 02:27:18;;;;;;;2.75;2.55;;;;;21.10;98386.00;;;;2051395;28;20222;-68
2022/09/28 02:28:18;;;;;;;2.30;2.10;;;;;21.10;98412.00;;;;2056456;28;20213;-68
2022/09/28 02:29:19;;;;;;;2.30;2.10;;;;;21.10;98419.00;;;;2058457;28;20215;-68
2022/09/28 02:30:19;;;;;;;3.23;2.30;;;;;21.00;98411.00;;;;2046793;28;20216;-68
2022/09/28 02:31:19;;;;;;;2.50;2.13;;;;;21.10;98424.00;;;;2052816;28;20349;-68
2022/09/28 02:32:20;;;;;;;2.53;2.33;;;;;21.10;98406.00;;;;2052588;28;20314;-69
2022/09/28 02:33:24;;;;;;;2.53;2.33;;;;;21.10;98404.00;;;;2052182;28;20212;-68
2022/09/28 02:34:24;;;;;;;2.28;2.08;;;;;21.10;98382.00;;;;2059310;28;20215;-69
2022/09/28 02:35:25;;;;;;;2.40;1.87;;;;;21.00;98407.00;;;;2059499;28;20207;-68
2022/09/28 02:36:25;;;;;;;3.53;2.30;;;;;21.10;98384.00;;;;2055230;28;20220;-68
2022/09/28 02:37:26;;;;;;;2.77;2.20;;;;;21.00;98414.00;;;;2052239;28;20268;-68
2022/09/28 02:38:26;;;;;;;2.73;2.30;;;;;21.00;98407.00;;;;2052170;28;20212;-68
2022/09/28 02:39:27;;;;;;;2.23;2.03;;;;;21.10;98409.00;;;;2060297;28;20241;-68
2022/09/28 02:40:32;;;;;;;2.40;2.20;;;;;21.10;98414.00;;;;2052952;28;20905;-68
2022/09/28 02:41:44;;;;;;;2.53;2.30;;;;;21.00;98411.00;;;;2054990;28;20228;-68
2022/09/28 02:43:03;;;;;;;2.60;2.17;;;;;21.10;98410.00;;;;2050283;28;20232;-68
2022/09/28 02:44:16;;;;;;;2.40;2.10;;;;;21.00;98415.00;;;;2052855;28;20247;-68
2022/09/28 02:45:47;;;;;;;2.95;2.55;;;;;21.00;98405.00;;;;2051720;28;20241;-68
2022/09/28 02:46:53;;;;;;;2.78;2.08;;;;;21.00;98418.00;;;;2057975;28;20358;-68
2022/09/28 02:48:19;;;;;;;3.17;2.20;;;;;21.00;98414.00;;;;2057224;28;20255;-68
2022/09/28 02:49:32;;;;;;;3.08;2.08;;;;;21.00;98421.00;;;;2044881;29;20216;-69
2022/09/28 02:50:42;;;;;;;2.35;2.15;;;;;21.00;98419.00;;;;2062313;28;20266;-68
2022/09/28 02:52:24;;;;;;;3.15;2.13;;;;;21.00;98424.00;;;;2058149;28;20272;-68
2022/09/28 02:53:52;;;;;;;2.53;2.33;;;;;21.00;98423.00;;;;2046369;28;20227;-66
2022/09/28 02:55:10;;;;;;;2.45;2.20;;;;;21.00;98420.00;;;;2052164;28;20227;-66
2022/09/28 02:56:44;;;;;;;2.50;2.30;;;;;21.00;98397.00;;;;2052879;28;20270;-67
2022/09/28 02:58:06;;;;;;;2.30;2.10;;;;;21.00;98434.00;;;;2029378;29;20214;-66
2022/09/28 02:59:12;;;;;;;2.30;2.03;;;;;21.00;98423.00;;;;2045323;29;20311;-66
2022/09/28 03:00:21;;;;;;;2.30;2.10;;;;;21.00;98428.00;;;;2036375;29;20220;-66
2022/09/28 03:01:27;;;;;;;2.47;2.28;;;;;21.00;98424.00;;;;2045062;28;20246;-66
2022/09/28 03:02:31;;;;;;;3.63;2.67;;;;;21.00;98422.00;;;;2047621;28;20239;-67
2022/09/28 03:03:54;;;;;;;2.80;2.47;;;;;21.00;98411.00;;;;2043512;28;20332;-66
2022/09/28 03:05:05;;;;;;;2.85;2.65;;;;;21.00;98392.00;;;;2046983;28;20219;-66
2022/09/28 03:06:13;;;;;;;3.28;2.80;;;;;21.00;98428.00;;;;2055434;28;20219;-67
2022/09/28 03:07:36;;;;;;;3.15;2.90;;;;;21.00;98424.00;;;;2054190;28;20742;-66
2022/09/28 03:08:39;;;;;;;2.95;2.38;;;;;21.00;98426.00;;;;2043171;28;20217;-67
2022/09/28 03:09:43;;;;;;;2.95;2.60;;;;;21.00;98413.00;;;;2042540;29;20217;-67
2022/09/28 03:10:49;;;;;;;2.70;2.50;;;;;21.00;98421.00;;;;2051122;28;20220;-67
2022/09/28 03:11:54;;;;;;;2.88;2.67;;;;;21.00;98425.00;;;;2049785;28;20299;-66
2022/09/28 03:12:55;;;;;;;2.90;2.58;;;;;21.00;98422.00;;;;2042964;28;20692;-67
2022/09/28 03:13:55;;;;;;;3.03;2.73;;;;;21.00;98421.00;;;;2050376;28;20243;-67
2022/09/28 03:15:12;;;;;;;2.97;2.53;;;;;21.00;98389.00;;;;2041094;29;20696;-67
2022/09/28 03:16:14;;;;;;;3.15;2.85;;;;;21.00;98417.00;;;;2050084;28;20223;-67
2022/09/28 03:17:14;;;;;;;3.45;3.15;;;;;21.00;98425.00;;;;2050951;28;20220;-67
2022/09/28 03:18:15;;;;;;;3.03;2.63;;;;;21.00;98415.00;;;;2051388;28;20279;-67
2022/09/28 03:19:16;;;;;;;3.33;3.03;;;;;21.00;98416.00;;;;2051890;28;20216;-67
2022/09/28 03:20:16;;;;;;;3.13;2.93;;;;;21.00;98430.00;;;;2059396;28;20467;-67
2022/09/28 03:21:17;;;;;;;2.77;2.57;;;;;21.00;98420.00;;;;2060548;28;20215;-67
2022/09/28 03:22:17;;;;;;;3.27;3.07;;;;;21.00;98417.00;;;;2051041;28;20220;-67
2022/09/28 03:23:17;;;;;;;3.57;3.27;;;;;21.00;98418.00;;;;2051693;28;20225;-67
2022/09/28 03:24:18;;;;;;;4.00;3.70;;;;;20.90;98420.00;;;;2051836;28;20220;-66
2022/09/28 03:25:18;;;;;;;3.37;3.07;;;;;21.00;98414.00;;;;2051669;28;20212;-67
2022/09/28 03:26:19;;;;;;;3.50;3.20;;;;;21.00;98413.00;;;;2051937;28;20208;-67
2022/09/28 03:27:19;;;;;;;3.77;3.47;;;;;20.90;98417.00;;;;2051935;28;20262;-67
2022/09/28 03:28:20;;;;;;;3.97;3.67;;;;;21.00;98416.00;;;;2051646;28;20515;-67
2022/09/28 03:29:21;;;;;;;3.67;3.38;;;;;20.90;98416.00;;;;2051110;28;20231;-66
2022/09/28 03:30:21;;;;;;;3.77;3.47;;;;;20.90;98412.00;;;;2051363;28;20259;-66
2022/09/28 03:31:22;;;;;;;4.10;3.80;;;;;20.90;98419.00;;;;2051456;28;20228;-66
2022/09/28 03:32:22;;;;;;;8.10;3.83;;;;;20.90;98422.00;;;;2051559;28;20277;-66
2022/09/28 03:33:22;;;;;;;4.77;4.13;;;;;20.90;98414.00;;;;2051877;28;20235;-67
2022/09/28 03:34:23;;;;;;;3.93;3.60;;;;;21.00;98417.00;;;;2051992;28;20215;-67
2022/09/28 03:35:23;;;;;;;3.70;3.40;;;;;20.90;98420.00;;;;2051433;28;20609;-67
2022/09/28 03:36:23;;;;;;;4.53;4.13;;;;;20.90;98251.00;;;;2051330;28;20745;-67
2022/09/28 03:37:24;;;;;;;4.57;4.17;;;;;20.90;98416.00;;;;2050638;28;20219;-67
2022/09/28 03:38:24;;;;;;;4.27;3.97;;;;;20.90;98426.00;;;;2058716;28;20269;-67
2022/09/28 03:39:24;;;;;;;3.83;3.50;;;;;20.90;98427.00;;;;2062140;28;20222;-67
2022/09/28 03:40:25;;;;;;;4.50;4.10;;;;;20.90;98422.00;;;;2051430;28;20258;-67
2022/09/28 03:41:28;;;;;;;4.37;3.97;;;;;20.90;98431.00;;;;2051397;28;20212;-67
2022/09/28 03:42:28;;;;;;;4.45;4.05;;;;;20.90;98419.00;;;;2051017;28;20219;-67
2022/09/28 03:43:29;;;;;;;4.77;4.20;;;;;20.90;98421.00;;;;2051274;28;20239;-67
2022/09/28 03:44:29;;;;;;;4.50;4.10;;;;;20.90;98422.00;;;;2052111;28;20983;-66
2022/09/28 03:45:30;;;;;;;4.80;4.40;;;;;20.90;98394.00;;;;2051655;28;20239;-66
2022/09/28 03:46:30;;;;;;;4.73;4.43;;;;;20.90;98433.00;;;;2051592;28;20596;-67
2022/09/28 03:47:30;;;;;;;4.60;4.20;;;;;20.90;98421.00;;;;2051904;28;20589;-67
2022/09/28 03:48:33;;;;;;;4.53;4.17;;;;;20.90;98424.00;;;;2051858;28;20216;-67
2022/09/28 03:49:33;;;;;;;5.05;4.60;;;;;20.90;98417.00;;;;2052458;28;20222;-67
2022/09/28 03:50:33;;;;;;;4.90;4.50;;;;;20.90;98421.00;;;;2052219;28;20212;-66
2022/09/28 03:51:33;;;;;;;4.97;4.57;;;;;20.90;98421.00;;;;2052437;28;20249;-67
2022/09/28 03:52:34;;;;;;;4.80;4.40;;;;;20.90;98426.00;;;;2053611;28;20257;-67
2022/09/28 03:53:35;;;;;;;4.90;4.50;;;;;20.90;98430.00;;;;2051087;28;20207;-67
2022/09/28 03:54:35;;;;;;;4.70;4.30;;;;;20.90;98420.00;;;;2051388;28;20230;-67
2022/09/28 03:55:37;;;;;;;4.90;4.50;;;;;20.90;98419.00;;;;2051390;28;20480;-67
2022/09/28 03:56:37;;;;;;;4.70;4.30;;;;;20.90;98425.00;;;;2055041;28;20455;-66
2022/09/28 03:57:37;;;;;;;5.13;4.73;;;;;20.90;98428.00;;;;2055112;28;20303;-67
2022/09/28 03:58:38;;;;;;;4.93;4.53;;;;;20.90;98416.00;;;;2052178;28;20224;-67
2022/09/28 03:59:38;;;;;;;4.83;4.40;;;;;20.80;98419.00;;;;2052317;28;20230;-67
2022/09/28 04:00:38;;;;;;;4.40;4.10;;;;;20.80;98421.00;;;;2051892;28;20259;-67
2022/09/28 04:01:39;;;;;;;4.80;4.40;;;;;20.80;98418.00;;;;2051352;28;20216;-67
2022/09/28 04:02:39;;;;;;;5.13;4.73;;;;;20.80;98417.00;;;;2051065;28;20282;-67
2022/09/28 04:03:39;;;;;;;5.17;4.50;;;;;20.80;98407.00;;;;2051441;28;20329;-67
2022/09/28 04:04:40;;;;;;;5.20;4.70;;;;;20.80;98404.00;;;;2051154;28;20270;-67
2022/09/28 04:05:50;;;;;;;4.60;4.20;;;;;20.80;98419.00;;;;2059596;28;21051;-67
2022/09/28 04:06:50;;;;;;;4.97;4.57;;;;;20.80;98420.00;;;;2058457;28;20297;-67
2022/09/28 04:07:52;;;;;;;5.47;4.30;;;;;20.90;98421.00;;;;2052021;28;20223;-67
2022/09/28 04:08:52;;;;;;;4.75;4.35;;;;;20.90;98421.00;;;;2054963;28;20231;-67
2022/09/28 04:09:52;;;;;;;5.30;4.80;;;;;20.80;98429.00;;;;2054839;28;20703;-67
2022/09/28 04:10:57;;;;;;;4.80;4.40;;;;;20.80;98424.00;;;;2051355;28;20224;-67
2022/09/28 04:11:57;;;;;;;4.68;4.28;;;;;20.80;98424.00;;;;2058785;28;20220;-66
2022/09/28 04:12:57;;;;;;;5.20;4.70;;;;;20.80;98425.00;;;;2059548;28;20212;-66
2022/09/28 04:13:57;;;;;;;4.83;4.43;;;;;20.80;98436.00;;;;2051899;28;20216;-67
2022/09/28 04:14:58;;;;;;;5.00;4.60;;;;;20.80;98421.00;;;;2051676;28;20219;-67
2022/09/28 04:15:59;;;;;;;4.80;4.40;;;;;20.80;98432.00;;;;2050282;28;20223;-66
2022/09/28 04:17:00;;;;;;;5.05;4.63;;;;;20.80;98294.00;;;;2050298;28;20266;-67
2022/09/28 04:18:00;;;;;;;5.00;4.60;;;;;20.80;98437.00;;;;2054282;28;20623;-67
2022/09/28 04:19:02;;;;;;;5.13;4.73;;;;;20.80;98430.00;;;;2054403;28;20222;-67
2022/09/28 04:20:03;;;;;;;5.70;5.20;;;;;20.80;98423.00;;;;2051476;28;20732;-66
2022/09/28 04:21:07;;;;;;;4.67;4.30;;;;;20.80;98425.00;;;;2051536;28;20311;-67
2022/09/28 04:22:08;;;;;;;5.13;4.72;;;;;20.80;98404.00;;;;2051793;28;20509;-66
2022/09/28 04:23:08;;;;;;;4.47;4.07;;;;;20.80;98436.00;;;;2051857;28;20223;-67
2022/09/28 04:24:09;;;;;;;4.93;4.53;;;;;20.80;98432.00;;;;2050186;28;20215;-67
2022/09/28 04:25:10;;;;;;;5.20;4.80;;;;;20.80;98430.00;;;;2058633;28;20218;-66
2022/09/28 04:26:23;;;;;;;4.73;4.33;;;;;20.80;98429.00;;;;2054763;28;20497;-67
2022/09/28 04:30:02;;;;;;;4.88;4.38;;;;;20.80;98435.00;;;;2053909;28;20739;-66
2022/09/28 04:31:03;;;;;;;5.33;4.93;;;;;20.80;98430.00;;;;2051201;28;20216;-67
2022/09/28 04:32:04;;;;;;;4.20;3.90;;;;;20.80;98425.00;;;;2049278;28;20268;-67
2022/09/28 04:33:05;;;;;;;5.20;4.80;;;;;20.80;98430.00;;;;2042914;29;20221;-66
2022/09/28 04:34:05;;;;;;;5.40;4.93;;;;;20.80;98436.00;;;;2048713;28;20220;-66
2022/09/28 04:35:06;;;;;;;5.17;4.73;;;;;20.80;98430.00;;;;2050042;28;20216;-66
2022/09/28 04:36:08;;;;;;;5.13;4.63;;;;;20.80;98461.00;;;;2051964;28;20226;-66
2022/09/28 04:37:08;;;;;;;4.85;4.45;;;;;20.80;98430.00;;;;2051331;28;20211;-67
2022/09/28 04:38:08;;;;;;;5.70;5.20;;;;;20.80;98435.00;;;;2051077;28;20786;-67
2022/09/28 04:39:10;;;;;;;5.30;4.80;;;;;20.80;98445.00;;;;2051279;28;20679;-66
2022/09/28 04:40:10;;;;;;;4.75;4.35;;;;;20.70;98434.00;;;;2058517;28;20219;-67
2022/09/28 04:41:11;;;;;;;5.60;4.87;;;;;20.80;98437.00;;;;2058736;28;20239;-67
2022/09/28 04:42:11;;;;;;;4.43;4.07;;;;;20.80;98430.00;;;;2051685;28;20216;-67
2022/09/28 04:43:11;;;;;;;5.60;5.10;;;;;20.80;98431.00;;;;2051766;28;20596;-67
2022/09/28 04:44:12;;;;;;;4.43;4.13;;;;;20.80;98429.00;;;;2051806;28;20215;-66
2022/09/28 04:45:12;;;;;;;4.70;4.30;;;;;20.80;98442.00;;;;2051732;28;20235;-66
2022/09/28 04:46:13;;;;;;;5.00;4.60;;;;;20.70;98436.00;;;;2051166;28;20350;-67
2022/09/28 04:47:13;;;;;;;4.90;4.50;;;;;20.80;98431.00;;;;2058337;28;20253;-67
2022/09/28 04:48:13;;;;;;;5.27;4.77;;;;;20.80;98438.00;;;;2058230;28;20219;-66
2022/09/28 04:49:14;;;;;;;4.97;4.57;;;;;20.80;98432.00;;;;2051162;28;20240;-68
2022/09/28 04:50:14;;;;;;;5.20;4.80;;;;;20.80;98434.00;;;;2051422;28;20223;-68
2022/09/28 04:51:15;;;;;;;4.43;4.03;;;;;20.80;98433.00;;;;2055429;28;20218;-68
2022/09/28 04:52:15;;;;;;;5.10;4.70;;;;;20.80;98432.00;;;;2053581;28;20761;-68
2022/09/28 04:53:15;;;;;;;4.73;4.33;;;;;20.80;98412.00;;;;2051653;28;20265;-67
2022/09/28 04:54:15;;;;;;;4.53;4.23;;;;;20.80;98432.00;;;;2051574;28;20309;-67
2022/09/28 04:55:16;;;;;;;4.10;3.80;;;;;20.80;98429.00;;;;2051774;28;20645;-68
2022/09/28 04:56:16;;;;;;;5.27;4.77;;;;;20.80;98433.00;;;;2051768;28;20216;-68
2022/09/28 04:57:17;;;;;;;4.73;4.33;;;;;20.70;98427.00;;;;2051835;28;21027;-67
2022/09/28 04:58:17;;;;;;;5.03;4.53;;;;;20.70;98398.00;;;;2051394;28;20222;-68
2022/09/28 04:59:17;;;;;;;4.50;4.20;;;;;20.70;98428.00;;;;2050889;28;20624;-67
2022/09/28 05:00:18;;;;;;;5.30;4.90;;;;;20.70;98428.00;;;;2051163;28;20215;-67
2022/09/28 05:01:19;;;;;;;4.87;4.47;;;;;20.70;98427.00;;;;2051049;28;20259;-67
2022/09/28 05:02:19;;;;;;;4.80;4.40;;;;;20.70;98435.00;;;;2050973;28;20224;-67
2022/09/28 05:03:20;;;;;;;5.03;4.63;;;;;20.70;98430.00;;;;2049634;28;20476;-67
2022/09/28 05:04:20;;;;;;;5.10;4.67;;;;;20.70;98421.00;;;;2051831;28;20260;-68
2022/09/28 05:05:20;;;;;;;4.60;4.30;;;;;20.70;98426.00;;;;2051266;28;20226;-67
2022/09/28 05:06:21;;;;;;;5.33;4.50;;;;;20.70;98432.00;;;;2051655;28;20219;-68
2022/09/28 05:07:22;;;;;;;4.75;4.35;;;;;20.70;98433.00;;;;2050513;28;20227;-67
2022/09/28 05:08:22;;;;;;;4.93;4.43;;;;;20.70;98430.00;;;;2050816;28;20756;-68
2022/09/28 05:09:22;;;;;;;5.27;4.87;;;;;20.70;98429.00;;;;2050967;28;20219;-68
2022/09/28 05:10:23;;;;;;;5.10;4.70;;;;;20.70;98430.00;;;;2050745;28;20553;-68
2022/09/28 05:11:23;;;;;;;4.53;4.23;;;;;19.30;98431.00;;;;2051560;28;20428;-68
2022/09/28 05:12:23;;;;;;;4.53;4.13;;;;;20.70;98429.00;;;;2051395;28;20302;-68
2022/09/28 05:13:24;;;;;;;4.80;4.40;;;;;20.70;98395.00;;;;2051487;28;20229;-68
2022/09/28 05:14:24;;;;;;;4.10;3.80;;;;;20.70;98428.00;;;;2058960;28;20266;-68
2022/09/28 05:15:25;;;;;;;5.10;4.70;;;;;20.70;98430.00;;;;2058314;28;20315;-67
2022/09/28 05:16:25;;;;;;;5.53;5.03;;;;;20.70;98435.00;;;;2050821;28;20231;-68
2022/09/28 05:17:26;;;;;;;4.50;4.20;;;;;20.70;98436.00;;;;2050944;28;20212;-68
2022/09/28 05:18:26;;;;;;;4.83;4.47;;;;;20.70;98427.00;;;;2050871;28;20239;-68
2022/09/28 05:19:26;;;;;;;4.30;4.00;;;;;20.70;98429.00;;;;2051428;28;20223;-68
2022/09/28 05:20:27;;;;;;;4.50;4.20;;;;;20.70;98426.00;;;;2051265;28;20227;-68
2022/09/28 05:21:28;;;;;;;4.70;4.40;;;;;20.70;98432.00;;;;2051545;28;20315;-68
2022/09/28 05:22:29;;;;;;;4.13;3.72;;;;;20.70;98439.00;;;;2051048;28;20868;-68
2022/09/28 05:23:29;;;;;;;4.73;4.33;;;;;20.70;98438.00;;;;2051222;28;20211;-68
2022/09/28 05:24:30;;;;;;;4.63;4.23;;;;;20.70;98438.00;;;;2054396;28;21082;-68